Time;durP1;ratioP1;P1;durP2;ratioP2;P2;SDS_P1;SDS_P2;PMS_P1;PMS_P2;Temp;Humidity;BMP_temperature;BMP_pressure;BME280_temperature;BME280_humidity;BME280_pressure;Samples;Min_cycle;Max_cycle;Signal;HPM_P1;HPM_P2
2022/08/20 00:02:19;;;;;;;4.75;1.80;;;;;;;16.63;100.00;94249.06;5076881;28;20035;-92
2022/08/20 00:04:45;;;;;;;11.55;2.10;;;;;;;16.90;100.00;94245.38;5076855;28;20098;-92
2022/08/20 00:07:13;;;;;;;3.63;1.80;;;;;;;16.81;100.00;94242.72;5076825;28;20035;-92
2022/08/20 00:09:40;;;;;;;3.90;1.67;;;;;;;16.70;100.00;94238.03;5076846;28;20032;-91
2022/08/20 00:12:06;;;;;;;5.47;1.80;;;;;;;16.67;100.00;94234.91;5075643;28;20095;-91
2022/08/20 00:14:32;;;;;;;4.07;1.90;;;;;;;16.62;100.00;94250.16;5075625;28;20059;-91
2022/08/20 00:16:58;;;;;;;4.18;1.42;;;;;;;16.58;100.00;94243.91;5075638;28;20033;-92
2022/08/20 00:19:24;;;;;;;2.17;1.40;;;;;;;16.57;100.00;94237.06;5075597;28;20033;-91
2022/08/20 00:21:50;;;;;;;5.38;2.05;;;;;;;16.54;100.00;94241.91;5076583;28;20033;-91
2022/08/20 00:24:16;;;;;;;5.10;2.22;;;;;;;16.53;100.00;94239.53;5076739;28;20036;-91
2022/08/20 00:26:41;;;;;;;5.93;1.65;;;;;;;16.59;100.00;94240.19;5075340;28;20043;-91
2022/08/20 00:29:07;;;;;;;3.65;1.67;;;;;;;16.59;100.00;94246.28;5078786;28;20040;-90
2022/08/20 00:31:32;;;;;;;3.28;1.67;;;;;;;16.55;100.00;94242.66;5095807;28;20070;-90
2022/08/20 00:33:58;;;;;;;5.75;2.30;;;;;;;16.60;100.00;94241.75;5075795;28;20457;-91
2022/08/20 00:36:23;;;;;;;6.20;2.08;;;;;;;16.49;100.00;94239.38;5075529;28;20032;-91
2022/08/20 00:38:49;;;;;;;3.33;2.47;;;;;;;16.52;100.00;94240.63;5076467;28;20551;-91
2022/08/20 00:41:20;;;;;;;4.45;1.92;;;;;;;16.45;100.00;94235.03;5075221;28;20039;-91
2022/08/20 00:43:52;;;;;;;3.75;2.20;;;;;;;16.44;100.00;94246.69;5076432;28;20123;-91
2022/08/20 00:46:27;;;;;;;6.00;2.55;;;;;;;16.45;100.00;94233.16;5075161;28;20120;-90
2022/08/20 00:48:55;;;;;;;5.65;2.65;;;;;;;16.53;100.00;94232.41;5077935;28;20036;-91
2022/08/20 00:51:42;;;;;;;4.38;2.30;;;;;;;16.49;100.00;94233.31;5080524;28;20024;-91
2022/08/20 00:54:33;;;;;;;6.60;2.58;;;;;;;16.45;100.00;94235.03;5079598;28;20029;-91
2022/08/20 00:57:03;;;;;;;9.80;2.40;;;;;;;16.48;100.00;94235.19;5077350;28;20048;-91
2022/08/20 00:59:32;;;;;;;3.05;1.90;;;;;;;16.42;100.00;94246.19;5079536;28;20032;-91
2022/08/20 01:01:59;;;;;;;5.55;2.00;;;;;;;16.45;100.00;94249.03;5079044;28;20036;-91
2022/08/20 01:04:26;;;;;;;5.30;1.55;;;;;;;16.34;100.00;94247.75;5079185;28;20032;-91
2022/08/20 01:06:52;;;;;;;6.22;2.00;;;;;;;15.96;100.00;94256.91;5062920;28;20028;-91
2022/08/20 01:09:18;;;;;;;3.78;2.90;;;;;;;16.17;100.00;94249.25;5079159;28;20062;-91
2022/08/20 01:11:44;;;;;;;4.90;2.78;;;;;;;16.20;100.00;94243.34;5079026;28;20349;-91
2022/08/20 01:16:48;;;;;;;11.88;3.38;;;;;;;16.38;100.00;94241.53;5079628;28;20033;-91
2022/08/20 01:19:17;;;;;;;4.32;3.00;;;;;;;16.41;100.00;94245.44;5078859;28;20024;-91
2022/08/20 01:21:42;;;;;;;8.68;2.88;;;;;;;16.55;100.00;94242.66;5078751;28;20032;-91
2022/08/20 01:24:19;;;;;;;5.78;3.10;;;;;;;16.46;100.00;94236.59;5078746;28;20083;-91
2022/08/20 01:26:46;;;;;;;5.30;3.13;;;;;;;16.51;100.00;94229.28;5078808;28;20032;-91
2022/08/20 01:29:28;;;;;;;4.15;2.85;;;;;;;16.53;100.00;94235.06;5079019;28;20047;-91
2022/08/20 01:32:00;;;;;;;3.90;2.58;;;;;;;16.54;100.00;94239.25;5079834;28;20024;-92
2022/08/20 01:34:26;;;;;;;4.38;2.92;;;;;;;16.52;100.00;94228.22;5079791;28;20032;-92
2022/08/20 01:36:53;;;;;;;4.70;2.95;;;;;;;16.63;100.00;94233.97;5079703;28;20385;-91
2022/08/20 01:39:28;;;;;;;10.88;2.85;;;;;;;16.59;100.00;94229.59;5078502;28;20063;-92
2022/08/20 01:42:22;;;;;;;4.72;2.45;;;;;;;16.65;100.00;94233.69;5078404;28;20425;-90
2022/08/20 01:44:49;;;;;;;5.78;3.05;;;;;;;16.60;100.00;94228.53;5076384;28;20048;-91
2022/08/20 01:47:22;;;;;;;8.35;2.50;;;;;;;16.59;100.00;94226.97;5078380;28;20097;-91
2022/08/20 01:49:51;;;;;;;6.03;2.70;;;;;;;16.59;100.00;94237.53;5062236;28;20028;-92
2022/08/20 01:52:40;;;;;;;6.13;2.80;;;;;;;16.52;100.00;94236.13;5078556;28;20368;-92
2022/08/20 01:55:06;;;;;;;5.72;3.15;;;;;;;16.53;100.00;94240.34;5078412;28;20032;-91
2022/08/20 01:57:33;;;;;;;8.43;3.10;;;;;;;16.40;100.00;94234.06;5062036;28;20035;-92
2022/08/20 02:00:00;;;;;;;9.20;3.40;;;;;;;16.36;100.00;94242.94;5061251;28;20067;-92
2022/08/20 02:02:27;;;;;;;5.32;2.95;;;;;;;16.30;100.00;94244.16;5078043;28;20338;-92
2022/08/20 02:04:53;;;;;;;10.95;3.70;;;;;;;16.41;100.00;94242.78;5061889;28;20032;-92
2022/08/20 02:07:20;;;;;;;8.25;4.00;;;;;;;16.35;100.00;94242.16;5061500;28;20349;-91
2022/08/20 02:09:47;;;;;;;8.30;3.97;;;;;;;16.50;100.00;94240.97;5061107;28;20071;-92
2022/08/20 02:12:16;;;;;;;8.18;3.40;;;;;;;16.51;100.00;94239.88;5079078;28;20020;-91
2022/08/20 02:14:58;;;;;;;8.52;3.58;;;;;;;16.37;100.00;94249.78;5076700;28;20025;-92
2022/08/20 02:17:25;;;;;;;5.93;3.20;;;;;;;16.40;100.00;94242.00;5061793;28;20032;-92
2022/08/20 02:19:59;;;;;;;5.65;3.38;;;;;;;16.04;100.00;94242.19;5061353;28;20031;-91
2022/08/20 02:22:46;;;;;;;5.78;3.60;;;;;;;16.48;100.00;94239.69;5061339;28;20066;-91
2022/08/20 02:25:12;;;;;;;6.93;4.53;;;;;;;16.39;100.00;94243.09;5077883;28;20033;-92
2022/08/20 02:27:40;;;;;;;6.75;3.03;;;;;;;16.32;100.00;94244.63;5077528;28;20029;-92
2022/08/20 02:33:27;;;;;;;13.00;3.70;;;;;;;15.91;100.00;94234.06;5078661;28;20035;-91
2022/08/20 02:35:55;;;;;;;8.50;3.63;;;;;;;15.80;100.00;94233.50;5060955;28;20021;-91
2022/08/20 02:38:20;;;;;;;9.48;2.85;;;;;;;15.84;100.00;94220.47;5077675;28;20024;-92
2022/08/20 02:40:47;;;;;;;4.55;2.80;;;;;;;15.77;100.00;94231.47;5077263;28;20035;-92
2022/08/20 02:43:14;;;;;;;7.53;3.05;;;;;;;15.75;100.00;94222.28;5060953;28;20071;-92
2022/08/20 02:45:42;;;;;;;5.43;3.55;;;;;;;15.82;100.00;94215.50;5077130;28;20024;-91
2022/08/20 02:48:10;;;;;;;6.43;3.47;;;;;;;15.69;100.00;94216.34;5077234;28;20027;-92
2022/08/20 02:50:36;;;;;;;7.38;3.65;;;;;;;15.67;100.00;94223.81;5060588;28;20025;-91
2022/08/20 02:53:01;;;;;;;6.32;4.00;;;;;;;15.66;100.00;94225.69;5081631;28;20031;-91
2022/08/20 02:55:27;;;;;;;7.05;3.40;;;;;;;15.62;100.00;94221.31;5080687;28;20040;-91
2022/08/20 02:57:54;;;;;;;7.10;4.13;;;;;;;15.84;100.00;94220.47;5098400;28;20024;-91
2022/08/20 03:00:20;;;;;;;5.20;3.50;;;;;;;15.87;100.00;94206.66;5098378;28;20027;-92
2022/08/20 03:02:47;;;;;;;7.35;4.03;;;;;;;15.68;100.00;94218.22;5098462;28;20028;-91
2022/08/20 03:05:13;;;;;;;6.65;4.20;;;;;;;15.74;100.00;94212.81;5098331;28;20020;-91
2022/08/20 03:07:47;;;;;;;6.85;4.13;;;;;;;15.84;100.00;94213.31;5098534;28;20110;-91
2022/08/20 03:10:13;;;;;;;7.35;4.00;;;;;;;15.79;100.00;94215.34;5098348;28;20028;-92
2022/08/20 03:12:40;;;;;;;6.22;4.20;;;;;;;15.68;100.00;94207.66;5097285;28;20314;-92
2022/08/20 03:15:07;;;;;;;7.35;4.28;;;;;;;15.58;100.00;94201.88;5098097;28;20348;-91
2022/08/20 03:17:33;;;;;;;7.22;4.30;;;;;;;15.56;100.00;94212.72;5096847;28;20123;-91
2022/08/20 03:19:58;;;;;;;5.88;3.67;;;;;;;15.69;100.00;94214.50;5098039;28;20055;-92
2022/08/20 03:22:24;;;;;;;6.22;3.38;;;;;;;15.66;100.00;94207.19;5097820;28;20027;-91
2022/08/20 03:24:49;;;;;;;6.50;3.92;;;;;;;15.54;100.00;94209.63;5097934;28;20028;-91
2022/08/20 03:27:15;;;;;;;8.27;4.07;;;;;;;15.42;100.00;94223.34;5097861;28;20028;-92
2022/08/20 03:29:40;;;;;;;6.07;4.57;;;;;;;15.29;100.00;94224.97;5097831;28;20110;-91
2022/08/20 03:32:05;;;;;;;9.85;4.20;;;;;;;15.33;100.00;94227.81;5097763;28;20125;-91
2022/08/20 03:34:31;;;;;;;8.98;4.20;;;;;;;15.41;100.00;94216.50;5097587;28;20032;-91
2022/08/20 03:36:57;;;;;;;5.78;3.78;;;;;;;15.37;100.00;94215.56;5090189;28;20127;-91
2022/08/20 03:39:22;;;;;;;7.47;4.32;;;;;;;15.41;100.00;94212.03;5076585;28;20078;-91
2022/08/20 03:41:48;;;;;;;6.45;3.50;;;;;;;15.60;100.00;94212.91;5076285;28;20035;-91
2022/08/20 03:44:14;;;;;;;5.47;2.90;;;;;;;15.52;100.00;94201.97;5077301;28;20173;-92
2022/08/20 03:46:39;;;;;;;7.13;3.03;;;;;;;15.53;100.00;94205.41;5076004;28;20039;-92
2022/08/20 03:49:04;;;;;;;5.28;2.92;;;;;;;15.56;100.00;94207.44;5075821;28;20028;-91
2022/08/20 03:51:31;;;;;;;5.72;2.70;;;;;;;15.53;100.00;94203.53;5059269;28;20454;-91
2022/08/20 03:53:57;;;;;;;5.72;2.35;;;;;;;15.87;100.00;94203.25;5077090;28;20035;-91
2022/08/20 03:56:22;;;;;;;5.07;2.22;;;;;;;16.02;100.00;94205.50;5077055;28;20029;-91
2022/08/20 03:58:47;;;;;;;10.77;2.42;;;;;;;15.95;100.00;94205.16;5076124;28;20067;-91
2022/08/20 04:01:13;;;;;;;3.15;2.00;;;;;;;15.86;100.00;94212.25;5076999;28;20035;-91
2022/08/20 04:03:40;;;;;;;4.72;2.20;;;;;;;15.99;100.00;94211.38;5076837;28;20032;-91
2022/08/20 04:06:29;;;;;;;6.35;2.20;;;;;;;16.05;100.00;94209.38;5075734;28;20032;-91
2022/08/20 04:08:55;;;;;;;5.68;1.92;;;;;;;16.15;100.00;94208.38;5076958;28;20020;-91
2022/08/20 04:11:20;;;;;;;3.92;2.00;;;;;;;16.02;100.00;94210.00;5077100;28;20024;-92
2022/08/20 04:13:46;;;;;;;7.28;2.40;;;;;;;16.03;100.00;94211.56;5075609;28;20071;-91
2022/08/20 04:16:12;;;;;;;7.82;2.17;;;;;;;15.84;100.00;94215.97;5076817;28;20020;-91
2022/08/20 04:18:37;;;;;;;4.47;1.92;;;;;;;15.78;100.00;94226.97;5075430;28;20032;-92
2022/08/20 04:21:04;;;;;;;3.63;1.65;;;;;;;15.76;100.00;94231.78;5076804;28;20449;-91
2022/08/20 04:23:30;;;;;;;7.80;1.90;;;;;;;15.64;100.00;94227.84;5076641;28;20384;-93
2022/08/20 04:25:57;;;;;;;3.70;2.10;;;;;;;15.54;100.00;94241.28;5075585;28;20024;-92
2022/08/20 04:28:25;;;;;;;2.53;1.70;;;;;;;15.63;100.00;94236.81;5075851;28;20115;-92
2022/08/20 04:30:52;;;;;;;3.42;1.58;;;;;;;15.62;100.00;94247.72;5075684;28;20021;-93
2022/08/20 04:33:21;;;;;;;5.70;1.65;;;;;;;15.58;100.00;94250.16;5076543;28;20330;-91
2022/08/20 04:35:47;;;;;;;4.85;1.65;;;;;;;15.66;100.00;94233.59;5075373;28;20342;-92
2022/08/20 04:38:16;;;;;;;6.38;1.80;;;;;;;15.68;100.00;94233.28;5076600;28;20089;-91
2022/08/20 04:40:56;;;;;;;3.75;1.70;;;;;;;15.71;100.00;94232.69;5075443;28;20055;-94
2022/08/20 04:43:28;;;;;;;2.10;1.40;;;;;;;15.81;100.00;94244.88;5075719;28;20033;-93
2022/08/20 04:45:57;;;;;;;2.45;1.48;;;;;;;15.74;100.00;94237.38;5060011;28;20098;-93
2022/08/20 04:48:27;;;;;;;3.58;1.55;;;;;;;15.76;100.00;94247.63;5075539;28;20028;-94
2022/08/20 04:50:52;;;;;;;5.50;1.70;;;;;;;15.68;100.00;94242.00;5075632;28;20032;-94
2022/08/20 04:53:21;;;;;;;3.88;2.10;;;;;;;15.80;100.00;94251.22;5075535;28;20074;-94
2022/08/20 04:55:47;;;;;;;2.50;1.75;;;;;;;15.87;100.00;94243.63;5059181;28;20358;-92
2022/08/20 04:58:18;;;;;;;3.78;1.75;;;;;;;15.90;100.00;94245.69;5075632;28;20060;-95
2022/08/20 05:00:50;;;;;;;2.83;1.77;;;;;;;15.93;100.00;94253.03;5075815;28;20025;-95
2022/08/20 05:03:16;;;;;;;5.22;1.73;;;;;;;15.85;100.00;94259.03;5075553;28;20028;-93
2022/08/20 05:05:44;;;;;;;2.17;1.30;;;;;;;15.82;100.00;94252.47;5059561;28;20032;-92
2022/08/20 05:08:11;;;;;;;4.10;1.60;;;;;;;15.88;100.00;94253.13;5076415;28;20111;-92
2022/08/20 05:10:37;;;;;;;2.13;1.40;;;;;;;15.93;100.00;94247.75;5075147;28;20040;-92
2022/08/20 05:13:04;;;;;;;4.25;1.65;;;;;;;15.96;100.00;94241.84;5074966;28;20033;-92
2022/08/20 05:15:30;;;;;;;2.88;1.50;;;;;;;15.99;100.00;94239.69;5075397;28;20119;-91
2022/08/20 05:18:01;;;;;;;2.67;1.25;;;;;;;16.03;100.00;94246.72;5075307;28;20043;-91
2022/08/20 05:20:30;;;;;;;4.82;1.50;;;;;;;16.15;100.00;94248.78;5075196;28;20060;-93
2022/08/20 05:22:57;;;;;;;2.30;1.40;;;;;;;16.26;100.00;94249.25;5059229;28;20029;-93
2022/08/20 05:25:23;;;;;;;5.82;1.27;;;;;;;16.36;100.00;94243.72;5076175;28;20032;-91
2022/08/20 05:27:48;;;;;;;2.20;1.42;;;;;;;16.42;100.00;94248.84;5074889;28;20029;-91
2022/08/20 05:30:16;;;;;;;1.33;1.20;;;;;;;16.45;100.00;94250.91;5076019;28;20332;-92
2022/08/20 05:32:42;;;;;;;2.65;1.55;;;;;;;16.47;100.00;94256.66;5074859;28;20362;-93
2022/08/20 05:35:09;;;;;;;1.92;1.20;;;;;;;16.53;100.00;94256.22;5076036;28;20032;-92
2022/08/20 05:37:36;;;;;;;6.97;1.42;;;;;;;16.53;100.00;94260.69;5062586;28;20024;-92
2022/08/20 05:40:07;;;;;;;5.60;1.63;;;;;;;16.70;100.00;94244.09;5078797;28;20118;-93
2022/08/20 05:42:33;;;;;;;7.05;2.17;;;;;;;16.91;100.00;94246.94;5078759;28;20115;-93
2022/08/20 05:44:58;;;;;;;3.28;1.95;;;;;;;17.04;100.00;94260.34;5079591;28;20165;-92
2022/08/20 05:47:27;;;;;;;3.38;1.45;;;;;;;17.07;100.00;94247.28;5061631;28;20043;-92
2022/08/20 05:49:52;;;;;;;5.32;1.58;;;;;;;17.30;100.00;94249.75;5078674;28;20031;-93
2022/08/20 05:52:18;;;;;;;3.55;1.38;;;;;;;17.36;100.00;94253.03;5078653;28;20029;-94
2022/08/20 05:54:44;;;;;;;2.45;1.45;;;;;;;17.64;100.00;94256.09;5079984;28;20033;-91
2022/08/20 05:57:09;;;;;;;1.60;1.40;;;;;;;17.85;100.00;94259.97;5078551;28;20036;-93
2022/08/20 05:59:35;;;;;;;3.45;1.38;;;;;;;17.92;100.00;94250.44;5078386;28;20039;-93
2022/08/20 06:04:23;;;;;;;3.40;1.42;;;;;;;18.05;100.00;94256.66;5078265;28;20033;-94
2022/08/20 06:04:47;;;;;;;3.35;1.58;;;;;;;18.13;100.00;94254.28;5079231;28;20338;-93
2022/08/20 06:07:14;;;;;;;2.33;1.33;;;;;;;18.33;100.00;94255.47;5079383;28;20020;-93
2022/08/20 06:09:39;;;;;;;4.65;1.45;;;;;;;18.49;100.00;94250.41;5079248;28;20070;-93
2022/08/20 06:12:07;;;;;;;5.55;1.20;;;;;;;18.72;100.00;94253.53;5079257;28;20028;-93
2022/08/20 06:14:33;;;;;;;4.80;1.30;;;;;;;18.96;100.00;94249.50;5078073;28;20402;-93
2022/08/20 06:17:08;;;;;;;3.65;1.40;;;;;;;19.13;100.00;94247.84;5078273;28;20071;-94
2022/08/20 06:19:34;;;;;;;4.13;1.48;;;;;;;19.09;100.00;94252.25;5078037;28;20029;-92
2022/08/20 06:22:01;;;;;;;3.42;1.38;;;;;;;19.04;100.00;94253.97;5077871;28;20033;-93
2022/08/20 06:24:26;;;;;;;8.13;1.75;;;;;;;18.97;100.00;94247.59;5077895;28;20028;-93
2022/08/20 06:26:56;;;;;;;7.60;1.65;;;;;;;19.02;100.00;94256.19;5078906;28;20092;-94
2022/08/20 06:29:21;;;;;;;5.60;1.80;;;;;;;19.14;100.00;94260.00;5078922;28;20036;-92
2022/08/20 06:31:47;;;;;;;2.25;1.15;;;;;;;19.20;100.00;94262.16;5078727;28;20361;-92
2022/08/20 06:34:13;;;;;;;3.08;1.60;;;;;;;19.25;100.00;94260.41;5078822;28;20032;-94
2022/08/20 06:36:38;;;;;;;2.38;1.20;;;;;;;19.19;100.00;94265.91;5077700;28;20032;-93
2022/08/20 06:39:04;;;;;;;5.35;1.27;;;;;;;19.26;100.00;94269.91;5077572;28;20364;-92
2022/08/20 06:41:29;;;;;;;9.00;1.13;;;;;;;19.31;100.00;94273.16;5077596;28;20033;-92
2022/08/20 06:43:55;;;;;;;2.63;1.40;;;;;;;19.22;100.00;94261.81;5060517;28;20044;-93
2022/08/20 06:46:22;;;;;;;3.97;1.27;;;;;;;19.32;100.00;94258.00;5060980;28;20376;-93
2022/08/20 06:48:49;;;;;;;4.50;1.20;;;;;;;19.24;100.00;94256.97;5078806;28;20032;-93
2022/08/20 06:51:15;;;;;;;4.45;1.40;;;;;;;19.29;100.00;94253.31;5077437;28;20118;-93
2022/08/20 06:53:43;;;;;;;3.83;1.23;;;;;;;19.42;100.00;94249.63;5077870;28;20032;-92
2022/08/20 06:56:10;;;;;;;2.17;1.00;;;;;;;19.51;100.00;94257.53;5044436;28;20032;-93
2022/08/20 06:58:36;;;;;;;3.88;1.60;;;;;;;19.68;100.00;94253.91;5061119;28;20055;-93
2022/08/20 07:01:01;;;;;;;3.10;1.35;;;;;;;19.70;100.00;94250.94;5061010;28;20032;-93
2022/08/20 07:03:27;;;;;;;3.38;1.30;;;;;;;19.67;100.00;94255.03;5060124;28;20041;-93
2022/08/20 07:05:52;;;;;;;10.55;1.52;;;;;;;19.73;100.00;94260.91;5060899;28;20345;-92
2022/08/20 07:08:20;;;;;;;9.70;1.55;;;;;;;19.89;100.00;94256.50;5076874;28;20032;-93
2022/08/20 07:10:47;;;;;;;3.75;1.17;;;;;;;20.08;100.00;94257.91;5078493;28;20059;-93
2022/08/20 07:13:15;;;;;;;1.58;0.90;;;;;;;20.08;100.00;94259.78;5060467;28;20074;-92
2022/08/20 07:15:41;;;;;;;3.17;0.98;;;;;;;20.05;100.00;94256.69;5078198;28;20036;-93
2022/08/20 07:18:07;;;;;;;4.25;1.10;;;;;;;20.32;100.00;94259.03;5076642;28;20044;-93
2022/08/20 07:20:35;;;;;;;1.88;1.13;;;;;;;20.49;100.00;94264.13;5076659;28;20028;-93
2022/08/20 07:23:01;;;;;;;1.95;1.00;;;;;;;20.62;100.00;94256.16;5060133;28;20044;-93
2022/08/20 07:25:27;;;;;;;2.08;1.15;;;;;;;20.58;100.00;94257.94;5060140;28;20036;-93
2022/08/20 07:28:06;;;;;;;4.72;1.10;;;;;;;20.84;100.00;94262.94;5076528;28;20031;-93
2022/08/20 07:33:16;;;;;;;1.98;1.25;;;;;;;20.84;100.00;94257.59;5076782;28;20078;-93
2022/08/20 07:35:42;;;;;;;2.58;0.80;;;;;;;20.86;100.00;94257.28;5076637;28;20036;-93
2022/08/20 07:38:23;;;;;;;3.30;0.90;;;;;;;21.19;100.00;94261.63;5077519;28;20531;-90
2022/08/20 07:40:50;;;;;;;3.58;1.00;;;;;;;21.00;100.00;94264.88;5077604;28;20028;-90
2022/08/20 07:43:16;;;;;;;4.15;0.70;;;;;;;21.33;100.00;94262.03;5076170;28;20029;-91
2022/08/20 07:45:42;;;;;;;2.72;1.17;;;;;;;21.35;100.00;94258.25;5077247;28;20035;-90
2022/08/20 07:48:10;;;;;;;1.35;1.02;;;;;;;21.50;100.00;94265.53;5077595;28;20357;-90
2022/08/20 07:50:37;;;;;;;1.55;0.85;;;;;;;21.86;100.00;94271.84;5077534;28;20028;-90
2022/08/20 07:53:03;;;;;;;2.13;1.10;;;;;;;21.76;100.00;94267.00;5077175;28;20020;-91
2022/08/20 07:55:29;;;;;;;1.85;1.00;;;;;;;21.80;100.00;94267.84;5076326;28;20031;-91
2022/08/20 07:57:57;;;;;;;5.20;1.13;;;;;;;21.88;100.00;94269.59;5076712;28;20024;-90
2022/08/20 08:00:23;;;;;;;1.77;1.10;;;;;;;21.81;100.00;94269.44;5076009;28;20357;-91
2022/08/20 08:02:49;;;;;;;1.48;0.77;;;;;;;21.79;99.51;94266.31;5075699;28;20029;-90
2022/08/20 08:05:16;;;;;;;3.47;0.95;;;;;;;21.93;100.00;94273.13;5076908;28;20031;-90
2022/08/20 08:07:42;;;;;;;1.15;1.05;;;;;;;21.81;100.00;94271.31;5076952;28;20024;-90
2022/08/20 08:10:17;;;;;;;2.13;1.02;;;;;;;21.97;98.15;94264.09;5076892;28;20078;-88
2022/08/20 08:12:47;;;;;;;3.42;0.93;;;;;;;22.12;99.12;94275.13;5075800;28;20035;-89
2022/08/20 08:15:16;;;;;;;1.38;0.85;;;;;;;22.05;97.61;94275.72;5076051;28;20063;-90
2022/08/20 08:17:45;;;;;;;1.55;0.75;;;;;;;22.26;100.00;94283.50;5075872;28;20028;-90
2022/08/20 08:20:11;;;;;;;1.05;0.73;;;;;;;22.11;91.94;94287.72;5075772;28;20031;-91
2022/08/20 08:22:43;;;;;;;1.00;0.90;;;;;;;22.36;100.00;94295.53;5075886;28;20025;-91
2022/08/20 08:25:10;;;;;;;5.20;0.80;;;;;;;22.22;100.00;94290.63;5075869;28;20115;-89
2022/08/20 08:27:36;;;;;;;1.30;1.08;;;;;;;22.41;97.87;94292.63;5076195;28;20281;-90
2022/08/20 08:30:02;;;;;;;3.47;0.93;;;;;;;22.33;99.01;94293.56;5097162;28;20118;-89
2022/08/20 08:32:31;;;;;;;1.10;0.80;;;;;;;22.45;100.00;94293.47;5095900;28;20024;-90
2022/08/20 08:34:57;;;;;;;1.77;0.90;;;;;;;22.35;96.95;94293.22;5096835;28;20425;-91
2022/08/20 08:37:23;;;;;;;1.05;0.93;;;;;;;22.51;100.00;94294.03;5096712;28;20032;-90
2022/08/20 08:39:48;;;;;;;1.52;0.95;;;;;;;22.84;100.00;94292.09;5096686;28;20043;-90
2022/08/20 08:42:56;;;;;;;2.22;0.88;;;;;;;22.81;99.65;94292.78;5097278;28;20035;-90
2022/08/20 08:45:31;;;;;;;4.60;0.80;;;;;;;22.93;91.98;94292.66;5062808;28;20360;-90
2022/08/20 08:47:58;;;;;;;3.58;1.00;;;;;;;22.84;98.18;94303.53;5095675;28;20032;-90
2022/08/20 08:50:33;;;;;;;3.88;1.08;;;;;;;22.82;97.76;94305.03;5096804;28;20043;-91
2022/08/20 08:53:00;;;;;;;1.13;0.75;;;;;;;22.93;99.66;94316.72;5095543;28;20020;-89
2022/08/20 08:55:35;;;;;;;4.55;1.00;;;;;;;23.04;93.26;94305.50;5095399;28;20024;-90
2022/08/20 08:58:02;;;;;;;0.70;0.70;;;;;;;23.04;93.83;94314.28;5095588;28;20039;-91
2022/08/20 09:00:28;;;;;;;0.82;0.60;;;;;;;23.33;100.00;94317.59;5095393;28;20114;-90
2022/08/20 09:03:09;;;;;;;1.67;0.90;;;;;;;23.47;81.67;94317.13;5095125;28;20032;-92
2022/08/20 09:06:17;;;;;;;0.63;0.60;;;;;;;23.25;87.05;94313.19;5095478;28;20035;-92
2022/08/20 09:08:47;;;;;;;0.85;0.60;;;;;;;23.29;84.98;94314.06;5097008;28;20020;-90
2022/08/20 09:11:13;;;;;;;2.45;0.80;;;;;;;23.15;84.05;94314.53;5099307;28;20066;-90
2022/08/20 09:13:39;;;;;;;1.00;0.80;;;;;;;23.39;96.26;94315.44;5100157;28;20052;-90
2022/08/20 09:16:05;;;;;;;6.82;0.90;;;;;;;23.28;95.03;94313.31;5100402;28;20039;-92
2022/08/20 09:18:38;;;;;;;1.42;0.70;;;;;;;23.35;92.06;94311.91;5099253;28;20376;-89
2022/08/20 09:21:16;;;;;;;0.75;0.50;;;;;;;23.29;93.73;94316.75;5100901;28;20120;-91
2022/08/20 09:23:42;;;;;;;0.55;0.55;;;;;;;23.38;80.24;94322.66;5088736;28;20028;-91
2022/08/20 09:26:11;;;;;;;0.70;0.50;;;;;;;23.51;80.37;94315.28;5078878;28;20379;-90
2022/08/20 09:28:36;;;;;;;1.20;0.80;;;;;;;23.46;78.40;94312.91;5078838;28;20028;-92
2022/08/20 09:31:03;;;;;;;3.00;0.70;;;;;;;23.40;93.99;94325.00;5080225;28;20050;-90
2022/08/20 09:33:31;;;;;;;4.35;0.88;;;;;;;23.34;85.65;94316.47;5079850;28;20447;-92
2022/08/20 09:36:03;;;;;;;0.63;0.60;;;;;;;23.28;89.93;94321.31;5078667;28;20039;-90
2022/08/20 09:38:29;;;;;;;0.88;0.70;;;;;;;23.46;83.50;94312.91;5078613;28;20028;-91
2022/08/20 09:40:54;;;;;;;6.35;0.73;;;;;;;23.58;86.10;94317.31;5062376;28;20086;-91
2022/08/20 09:43:22;;;;;;;1.45;0.80;;;;;;;23.87;89.73;94309.84;5079477;28;20040;-91
2022/08/20 09:45:47;;;;;;;0.70;0.40;;;;;;;23.83;85.65;94314.38;5062165;28;20126;-92
2022/08/20 09:48:13;;;;;;;1.30;0.70;;;;;;;23.53;81.00;94317.59;5078910;28;20124;-90
2022/08/20 09:50:46;;;;;;;1.90;0.93;;;;;;;23.77;86.04;94313.88;5079663;28;20024;-91
2022/08/20 09:53:12;;;;;;;2.70;0.70;;;;;;;23.93;93.65;94303.09;5079471;28;20082;-90
2022/08/20 09:55:39;;;;;;;1.10;0.80;;;;;;;24.40;96.17;94303.16;5078568;28;20036;-92
2022/08/20 09:58:13;;;;;;;0.70;0.60;;;;;;;24.11;91.93;94314.16;5078261;28;20028;-94
2022/08/20 10:00:53;;;;;;;1.17;1.00;;;;;;;24.15;90.13;94308.84;5079910;28;20078;-94
2022/08/20 10:03:18;;;;;;;3.33;0.80;;;;;;;24.56;97.43;94308.38;5078430;28;20033;-94
2022/08/20 10:05:46;;;;;;;1.20;0.80;;;;;;;24.39;83.58;94302.38;5079361;28;20038;-93
2022/08/20 10:08:12;;;;;;;2.85;0.85;;;;;;;24.61;97.73;94315.34;5078095;28;20060;-94
2022/08/20 10:10:38;;;;;;;0.50;0.50;;;;;;;24.26;82.77;94301.78;5077972;28;20480;-93
2022/08/20 10:13:03;;;;;;;2.80;0.70;;;;;;;24.74;98.01;94297.16;5079188;28;20036;-92
2022/08/20 10:15:29;;;;;;;2.53;0.70;;;;;;;24.28;95.46;94296.84;5078172;28;20064;-94
2022/08/20 10:17:56;;;;;;;1.58;0.80;;;;;;;24.24;80.95;94304.03;5062093;28;20518;-93
2022/08/20 10:20:22;;;;;;;1.88;1.05;;;;;;;24.35;86.78;94298.09;5079018;28;20425;-93
2022/08/20 10:22:47;;;;;;;2.53;0.77;;;;;;;24.27;82.64;94300.66;5077946;28;20049;-92
2022/08/20 10:25:13;;;;;;;2.58;0.80;;;;;;;24.44;77.11;94303.97;5077868;28;20032;-93
2022/08/20 10:27:38;;;;;;;1.20;0.60;;;;;;;24.72;89.03;94302.88;5077906;28;20051;-94
2022/08/20 10:30:05;;;;;;;0.85;0.63;;;;;;;24.99;80.20;94305.59;5078823;28;20039;-93
2022/08/20 10:32:31;;;;;;;6.75;0.88;;;;;;;24.99;80.82;94300.22;5077787;28;20029;-93
2022/08/20 10:35:01;;;;;;;1.35;0.73;;;;;;;24.81;89.61;94295.41;5079026;28;20090;-93
2022/08/20 10:37:27;;;;;;;1.75;0.70;;;;;;;25.05;89.62;94298.81;5077563;28;20050;-93
2022/08/20 10:39:53;;;;;;;1.15;0.80;;;;;;;25.03;76.98;94298.38;5061102;28;20028;-93
2022/08/20 10:42:18;;;;;;;1.20;0.70;;;;;;;24.83;87.44;94297.72;5061408;28;20035;-93
2022/08/20 10:44:44;;;;;;;3.15;0.93;;;;;;;24.64;80.69;94296.63;5077423;28;20032;-94
2022/08/20 10:47:30;;;;;;;3.05;0.80;;;;;;;24.82;86.06;94291.59;5077605;28;20073;-95
2022/08/20 10:50:02;;;;;;;0.88;0.80;;;;;;;24.92;79.83;94294.78;5061178;28;20086;-94
2022/08/20 10:52:28;;;;;;;2.15;0.60;;;;;;;24.90;80.18;94291.69;5061395;28;20067;-95
2022/08/20 10:54:54;;;;;;;1.35;0.52;;;;;;;24.91;80.48;94285.19;5061183;28;20028;-94
2022/08/20 10:57:23;;;;;;;1.92;1.02;;;;;;;25.16;81.33;94290.91;5077274;28;20031;-93
2022/08/20 10:59:50;;;;;;;2.05;0.80;;;;;;;25.45;81.41;94285.13;5077069;28;20025;-93
2022/08/20 11:02:16;;;;;;;1.30;0.75;;;;;;;25.55;82.17;94287.97;5060551;28;20038;-93
2022/08/20 11:04:42;;;;;;;1.42;0.80;;;;;;;25.26;70.49;94286.81;5077389;28;20028;-93
2022/08/20 11:07:15;;;;;;;1.60;0.57;;;;;;;25.27;73.93;94283.00;5060891;28;20429;-95
2022/08/20 11:09:41;;;;;;;2.00;0.80;;;;;;;25.71;81.78;94278.94;5060859;28;20032;-93
2022/08/20 11:12:07;;;;;;;2.03;0.60;;;;;;;25.40;79.68;94280.88;5060938;28;20021;-94
2022/08/20 11:14:32;;;;;;;5.13;0.80;;;;;;;25.20;77.16;94275.63;5060418;28;20039;-94
2022/08/20 11:17:06;;;;;;;2.13;0.80;;;;;;;25.52;73.96;94275.28;5076925;28;20028;-93
2022/08/20 11:19:33;;;;;;;1.13;0.60;;;;;;;25.93;79.63;94281.84;5061712;28;20041;-93
2022/08/20 11:21:58;;;;;;;0.60;0.60;;;;;;;26.15;75.93;94274.00;5076685;28;20119;-92
2022/08/20 11:24:24;;;;;;;3.10;0.70;;;;;;;26.48;76.99;94286.59;5060371;28;20186;-92
2022/08/20 11:26:52;;;;;;;2.72;0.68;;;;;;;26.37;70.37;94280.34;5060315;28;20040;-94
2022/08/20 11:29:19;;;;;;;0.80;0.63;;;;;;;26.16;64.34;94278.22;5060635;28;20043;-94
2022/08/20 11:31:45;;;;;;;1.08;0.70;;;;;;;26.16;74.64;94283.59;5060096;28;20064;-93
2022/08/20 11:34:10;;;;;;;3.67;0.80;;;;;;;26.12;77.01;94278.19;5059591;28;20063;-94
2022/08/20 11:36:38;;;;;;;1.52;0.45;;;;;;;26.22;59.57;94274.09;5060225;28;20074;-94
2022/08/20 11:39:04;;;;;;;7.22;0.82;;;;;;;25.97;58.16;94277.28;5060338;28;20029;-94
2022/08/20 11:41:29;;;;;;;2.10;0.73;;;;;;;26.39;68.06;94278.81;5060072;28;20085;-91